Time;durP1;ratioP1;P1;durP2;ratioP2;P2;SDS_P1;SDS_P2;PMS_P1;PMS_P2;Temp;Humidity;BMP_temperature;BMP_pressure;BME280_temperature;BME280_humidity;BME280_pressure;Samples;Min_cycle;Max_cycle;Signal;HPM_P1;HPM_P2
2023/01/26 00:02:19;;;;;;;93.47;31.85;;;;;;;-1.84;100.00;102413.78;5072188;28;20127;-52
2023/01/26 00:04:48;;;;;;;87.65;30.67;;;;;;;-1.79;100.00;102406.97;5071413;28;20044;-51
2023/01/26 00:07:16;;;;;;;88.95;31.05;;;;;;;-1.75;100.00;102406.16;5071362;28;20045;-53
2023/01/26 00:09:44;;;;;;;86.70;30.92;;;;;;;-1.82;100.00;102394.91;5068741;28;20503;-49
2023/01/26 00:12:12;;;;;;;94.00;29.88;;;;;;;-1.92;100.00;102396.53;5067554;28;20449;-50
2023/01/26 00:17:26;;;;;;;85.43;28.48;;;;;;;-1.94;100.00;102395.63;5067352;28;20037;-49
2023/01/26 00:19:56;;;;;;;92.22;30.52;;;;;;;-1.90;100.00;102392.22;5070183;28;20040;-48
2023/01/26 00:22:25;;;;;;;98.00;31.65;;;;;;;-1.82;100.00;102386.31;5072286;28;20041;-52
2023/01/26 00:24:54;;;;;;;91.45;28.88;;;;;;;-1.92;100.00;102381.06;5071717;28;20048;-50
2023/01/26 00:27:22;;;;;;;93.20;29.83;;;;;;;-1.96;100.00;102378.44;5068046;28;20483;-50
2023/01/26 00:29:50;;;;;;;85.38;28.38;;;;;;;-1.84;100.00;102372.53;5069773;28;20106;-51
2023/01/26 00:32:18;;;;;;;87.10;29.50;;;;;;;-1.94;100.00;102375.00;5071767;28;20529;-51
2023/01/26 00:34:47;;;;;;;88.32;29.20;;;;;;;-2.01;100.00;102374.94;5071722;28;20084;-51
2023/01/26 00:37:15;;;;;;;76.82;26.83;;;;;;;-1.96;100.00;102363.81;5071620;28;20485;-50
2023/01/26 00:39:44;;;;;;;88.22;29.42;;;;;;;-1.98;100.00;102367.22;5071618;28;20051;-48
2023/01/26 00:42:13;;;;;;;86.57;29.88;;;;;;;-1.90;100.00;102363.00;5070067;28;20465;-53
2023/01/26 00:44:43;;;;;;;89.07;28.25;;;;;;;-1.86;100.00;102354.47;5068708;28;20040;-49
2023/01/26 00:47:13;;;;;;;79.28;27.17;;;;;;;-1.81;100.00;102352.81;5069806;28;20049;-49
2023/01/26 00:49:41;;;;;;;89.65;29.52;;;;;;;-1.96;100.00;102343.19;5071655;28;20097;-51
2023/01/26 00:52:11;;;;;;;91.30;28.83;;;;;;;-1.89;100.00;102339.81;5071504;28;20544;-51
2023/01/26 00:54:39;;;;;;;83.47;26.98;;;;;;;-1.79;100.00;102357.97;5071639;28;20135;-49
2023/01/26 00:57:07;;;;;;;83.00;27.55;;;;;;;-1.87;100.00;102358.75;5072929;28;20047;-50
2023/01/26 00:59:36;;;;;;;75.68;25.80;;;;;;;-1.81;100.00;102355.38;5075169;28;20057;-48
2023/01/26 01:02:04;;;;;;;82.63;28.83;;;;;;;-1.75;100.00;102358.00;5073808;28;20045;-50
2023/01/26 01:04:32;;;;;;;77.40;26.52;;;;;;;-1.66;100.00;102358.94;5075186;28;20496;-51
2023/01/26 01:07:00;;;;;;;74.45;27.08;;;;;;;-1.78;100.00;102357.97;5074308;28;20068;-51
2023/01/26 01:09:30;;;;;;;84.53;28.40;;;;;;;-1.76;100.00;102363.16;5071397;28;20381;-51
2023/01/26 01:11:58;;;;;;;81.20;26.73;;;;;;;-1.77;100.00;102364.00;5073623;28;20045;-51
2023/01/26 01:14:26;;;;;;;81.18;26.40;;;;;;;-1.80;100.00;102358.81;5071994;28;20583;-50
2023/01/26 01:16:54;;;;;;;79.57;26.33;;;;;;;-1.77;100.00;102354.56;5070750;28;20093;-51
2023/01/26 01:19:22;;;;;;;80.05;26.30;;;;;;;-1.86;100.00;102346.72;5074877;28;20052;-61
2023/01/26 01:21:50;;;;;;;78.50;26.35;;;;;;;-1.76;100.00;102338.25;5074362;28;20132;-61
2023/01/26 01:24:18;;;;;;;73.57;26.15;;;;;;;-1.75;100.00;102341.69;5074612;28;20123;-60
2023/01/26 01:26:48;;;;;;;71.63;25.98;;;;;;;-1.76;100.00;102345.09;5074817;28;20360;-61
2023/01/26 01:29:16;;;;;;;78.53;26.00;;;;;;;-1.77;100.00;102340.78;5071243;28;20452;-61
2023/01/26 01:31:45;;;;;;;71.00;25.05;;;;;;;-1.72;100.00;102346.84;5070703;28;20302;-61
2023/01/26 01:34:13;;;;;;;75.50;26.67;;;;;;;-1.68;100.00;102348.63;5074508;28;20075;-60
2023/01/26 01:36:41;;;;;;;68.95;25.02;;;;;;;-1.67;100.00;102340.03;5074408;28;20044;-61
2023/01/26 01:39:09;;;;;;;76.82;25.85;;;;;;;-1.66;100.00;102348.63;5074376;28;20040;-61
2023/01/26 01:41:37;;;;;;;71.53;24.90;;;;;;;-1.64;100.00;102334.91;5074551;28;20044;-61
2023/01/26 01:44:18;;;;;;;73.88;27.02;;;;;;;-1.72;100.00;102342.59;5074399;28;20045;-60
2023/01/26 01:46:52;;;;;;;67.03;25.17;;;;;;;-1.62;100.00;102340.06;5074288;28;20048;-60
2023/01/26 01:49:25;;;;;;;67.95;24.13;;;;;;;-1.55;100.00;102340.16;5074281;28;20048;-60
2023/01/26 01:51:58;;;;;;;72.22;25.85;;;;;;;-1.54;100.00;102331.56;5071070;28;20056;-61
2023/01/26 01:54:32;;;;;;;69.55;25.90;;;;;;;-1.58;100.00;102332.38;5070474;28;20045;-61
2023/01/26 01:57:14;;;;;;;64.88;24.08;;;;;;;-1.50;100.00;102334.16;5073982;28;20044;-61
2023/01/26 01:59:49;;;;;;;70.38;24.70;;;;;;;-1.53;100.00;102332.41;5072164;28;20145;-60
2023/01/26 02:02:18;;;;;;;64.57;25.38;;;;;;;-1.45;100.00;102327.34;5069546;28;20396;-60
2023/01/26 02:04:46;;;;;;;67.10;24.08;;;;;;;-1.42;100.00;102314.44;5073269;28;20116;-61
2023/01/26 02:07:15;;;;;;;72.38;26.55;;;;;;;-1.46;100.00;102317.84;5069460;28;20483;-60
2023/01/26 02:12:33;;;;;;;66.07;23.67;;;;;;;-1.67;100.00;102308.22;5073956;28;20127;-60
2023/01/26 02:15:03;;;;;;;66.50;25.50;;;;;;;-1.60;100.00;102308.28;5070786;28;20048;-60
2023/01/26 02:17:31;;;;;;;70.57;24.38;;;;;;;-1.59;100.00;102311.72;5086049;28;20098;-60
2023/01/26 02:20:08;;;;;;;69.47;25.23;;;;;;;-1.54;100.00;102308.34;5073104;28;20064;-59
2023/01/26 02:22:46;;;;;;;60.13;22.90;;;;;;;-1.52;100.00;102303.19;5069553;28;20694;-60
2023/01/26 02:25:24;;;;;;;62.30;21.85;;;;;;;-1.49;100.00;102308.38;5072586;28;20044;-60
2023/01/26 02:27:54;;;;;;;58.05;23.10;;;;;;;-1.41;100.00;102303.28;5073511;28;20040;-59
2023/01/26 02:30:23;;;;;;;52.47;19.58;;;;;;;-1.40;100.00;102310.19;5073377;28;20067;-60
2023/01/26 02:32:51;;;;;;;52.72;20.60;;;;;;;-1.34;100.00;102306.78;5073816;28;20067;-60
2023/01/26 02:35:19;;;;;;;55.75;21.48;;;;;;;-1.36;100.00;102309.34;5073495;28;20510;-60
2023/01/26 02:37:47;;;;;;;58.17;21.60;;;;;;;-1.37;100.00;102310.19;5071380;28;20041;-60
2023/01/26 02:40:25;;;;;;;61.20;22.23;;;;;;;-1.33;100.00;102303.34;5070028;28;20063;-60
2023/01/26 02:42:54;;;;;;;55.75;20.83;;;;;;;-1.31;100.00;102301.63;5072421;28;20056;-60
2023/01/26 02:45:23;;;;;;;57.40;21.52;;;;;;;-1.32;100.00;102307.63;5073513;28;20068;-59
2023/01/26 02:47:52;;;;;;;50.67;19.90;;;;;;;-1.26;100.00;102305.13;5073196;28;20055;-59
2023/01/26 02:50:19;;;;;;;52.90;19.90;;;;;;;-1.29;100.00;102298.22;5073167;28;20471;-59
2023/01/26 02:52:47;;;;;;;55.50;21.45;;;;;;;-1.34;100.00;102299.88;5072992;28;20056;-59
2023/01/26 02:55:27;;;;;;;48.08;20.23;;;;;;;-1.37;100.00;102308.47;5073101;28;20135;-59
2023/01/26 02:57:58;;;;;;;53.00;20.27;;;;;;;-1.35;100.00;102305.88;5072892;28;20502;-59
2023/01/26 03:00:28;;;;;;;56.97;21.15;;;;;;;-1.31;100.00;102305.09;5073055;28;20583;-60
2023/01/26 03:02:58;;;;;;;54.53;21.35;;;;;;;-1.34;100.00;102307.63;5073034;28;20048;-60
2023/01/26 03:05:27;;;;;;;55.03;21.38;;;;;;;-1.36;100.00;102302.44;5073072;28;20044;-60
2023/01/26 03:07:55;;;;;;;53.90;20.67;;;;;;;-1.29;100.00;102305.09;5072914;28;20349;-60
2023/01/26 03:10:25;;;;;;;51.92;19.67;;;;;;;-1.32;100.00;102305.06;5072800;28;20051;-60
2023/01/26 03:12:54;;;;;;;54.50;21.60;;;;;;;-1.30;100.00;102304.22;5072834;28;20048;-60
2023/01/26 03:15:42;;;;;;;49.78;20.52;;;;;;;-1.24;100.00;102303.38;5072865;28;20040;-60
2023/01/26 03:27:25;;;;;;;53.22;22.00;;;;;;;-1.28;100.00;102307.69;5072701;28;20051;-60
2023/01/26 03:29:22;;;;;;;53.45;20.15;;;;;;;-1.33;100.00;102300.75;5070552;28;20052;-60
2023/01/26 03:31:52;;;;;;;51.03;20.35;;;;;;;-1.29;100.00;102295.63;5068497;28;20040;-60
2023/01/26 03:34:20;;;;;;;53.75;20.60;;;;;;;-1.26;100.00;102289.63;5071136;28;20059;-60
2023/01/26 03:36:48;;;;;;;52.28;20.50;;;;;;;-1.27;100.00;102293.94;5072164;28;20455;-59
2023/01/26 03:58:42;;;;;;;44.65;17.27;;;;;;;-1.24;100.00;102293.94;5070438;28;20059;-60
2023/01/26 04:01:18;;;;;;;44.38;17.70;;;;;;;-1.19;100.00;102293.97;5072238;28;20044;-58
2023/01/26 04:09:22;;;;;;;40.85;16.10;;;;;;;-1.10;100.00;102300.94;5086563;28;20527;-59
2023/01/26 04:11:51;;;;;;;43.13;16.70;;;;;;;-1.07;100.00;102304.38;5072509;28;20075;-59
2023/01/26 04:22:52;;;;;;;37.08;16.67;;;;;;;-1.05;100.00;102296.63;5072588;28;20122;-59
2023/01/26 04:25:21;;;;;;;40.55;15.55;;;;;;;-1.05;100.00;102301.81;5072412;28;20052;-59
2023/01/26 04:27:50;;;;;;;38.83;15.70;;;;;;;-1.04;100.00;102286.34;5072242;28;20056;-58
2023/01/26 04:30:18;;;;;;;37.42;15.90;;;;;;;-1.01;100.00;102298.38;5071980;28;20578;-59
2023/01/26 04:32:50;;;;;;;38.25;13.98;;;;;;;-0.99;100.00;102293.25;5074900;28;20052;-58
2023/01/26 04:35:20;;;;;;;38.97;15.20;;;;;;;-0.99;100.00;102298.41;5075454;28;20128;-58
2023/01/26 04:37:48;;;;;;;36.08;15.43;;;;;;;-1.01;100.00;102300.97;5073685;28;20057;-58
2023/01/26 04:40:17;;;;;;;32.30;14.25;;;;;;;-0.95;100.00;102298.44;5074567;28;20049;-58
2023/01/26 04:42:45;;;;;;;36.50;15.07;;;;;;;-0.94;100.00;102287.25;5074524;28;20086;-59
2023/01/26 04:45:13;;;;;;;34.25;13.35;;;;;;;-0.93;100.00;102298.44;5074419;28;20487;-59
2023/01/26 04:47:41;;;;;;;34.88;13.80;;;;;;;-0.89;100.00;102287.28;5076136;28;20060;-59
2023/01/26 04:50:10;;;;;;;32.75;13.63;;;;;;;-0.88;100.00;102291.59;5075391;28;20086;-59
2023/01/26 04:52:40;;;;;;;31.90;13.02;;;;;;;-0.92;100.00;102290.69;5073910;28;20053;-59
2023/01/26 04:55:09;;;;;;;36.78;14.73;;;;;;;-0.92;100.00;102290.69;5075098;28;20479;-59
2023/01/26 04:57:37;;;;;;;35.85;15.32;;;;;;;-0.93;100.00;102291.53;5076026;28;20045;-59
2023/01/26 05:00:09;;;;;;;31.60;12.77;;;;;;;-0.90;100.00;102289.00;5075045;28;20503;-59
2023/01/26 05:02:39;;;;;;;33.97;13.27;;;;;;;-0.95;100.00;102282.94;5073080;28;20559;-59
2023/01/26 05:05:08;;;;;;;32.42;14.25;;;;;;;-0.93;100.00;102288.97;5073835;28;20507;-59
2023/01/26 05:07:36;;;;;;;33.67;13.63;;;;;;;-0.90;100.00;102278.66;5073948;28;20079;-59
2023/01/26 05:10:06;;;;;;;33.63;13.82;;;;;;;-0.92;100.00;102272.63;5073141;28;20438;-59
2023/01/26 05:12:37;;;;;;;31.52;13.82;;;;;;;-0.90;100.00;102285.53;5075466;28;20052;-59
2023/01/26 05:15:05;;;;;;;30.17;13.05;;;;;;;-0.85;100.00;102273.50;5075296;28;20102;-59
2023/01/26 05:17:35;;;;;;;29.75;13.02;;;;;;;-0.89;100.00;102271.78;5075308;28;20407;-59
2023/01/26 05:20:03;;;;;;;28.88;13.13;;;;;;;-0.87;100.00;102281.25;5075182;28;20059;-59
2023/01/26 05:22:31;;;;;;;31.60;12.65;;;;;;;-0.87;100.00;102283.00;5075480;28;20491;-59
2023/01/26 05:24:59;;;;;;;31.83;13.68;;;;;;;-0.82;100.00;102278.69;5074661;28;20045;-59
2023/01/26 05:27:28;;;;;;;30.63;12.23;;;;;;;-0.87;100.00;102273.50;5072407;28;20053;-59
2023/01/26 05:29:59;;;;;;;31.95;13.32;;;;;;;-0.85;100.00;102270.94;5071658;28;20064;-59
2023/01/26 05:32:28;;;;;;;30.67;13.43;;;;;;;-0.85;100.00;102273.50;5075067;28;20555;-59
2023/01/26 05:34:56;;;;;;;31.88;12.45;;;;;;;-0.88;100.00;102268.34;5074941;28;20067;-59
2023/01/26 05:37:25;;;;;;;31.75;13.10;;;;;;;-0.81;100.00;102269.25;5071770;28;20056;-59
2023/01/26 05:39:54;;;;;;;30.38;12.93;;;;;;;-0.81;100.00;102275.25;5072530;28;20042;-59
2023/01/26 05:42:22;;;;;;;32.03;13.98;;;;;;;-0.80;100.00;102276.13;5074665;28;20055;-59
2023/01/26 05:44:52;;;;;;;30.50;13.13;;;;;;;-0.82;100.00;102270.94;5072399;28;20078;-59
2023/01/26 05:47:20;;;;;;;28.70;11.60;;;;;;;-0.87;100.00;102268.34;5071497;28;20052;-59
2023/01/26 05:49:49;;;;;;;29.42;12.70;;;;;;;-0.81;100.00;102269.25;5074112;28;20048;-59
2023/01/26 05:52:19;;;;;;;28.85;12.88;;;;;;;-0.79;100.00;102275.25;5073985;28;20109;-58
2023/01/26 05:54:48;;;;;;;30.30;13.00;;;;;;;-0.78;100.00;102269.25;5072678;28;20391;-59
2023/01/26 05:57:16;;;;;;;34.25;14.85;;;;;;;-0.77;100.00;102276.16;5073140;28;20052;-59
2023/01/26 05:59:44;;;;;;;34.08;13.27;;;;;;;-0.78;100.00;102280.44;5073055;28;20056;-59
2023/01/26 06:02:14;;;;;;;33.95;13.93;;;;;;;-0.74;100.00;102279.59;5074343;28;20411;-59
2023/01/26 06:04:42;;;;;;;33.35;14.20;;;;;;;-0.73;100.00;102275.31;5074401;28;20376;-58
2023/01/26 06:07:12;;;;;;;32.53;13.77;;;;;;;-0.76;100.00;102276.16;5074240;28;20063;-59
2023/01/26 06:09:40;;;;;;;30.75;13.52;;;;;;;-0.74;100.00;102284.75;5074238;28;20066;-58
2023/01/26 06:12:15;;;;;;;31.38;13.45;;;;;;;-0.73;100.00;102281.31;5074104;28;20053;-58
2023/01/26 06:14:43;;;;;;;36.75;15.23;;;;;;;-0.73;100.00;102280.47;5072197;28;20047;-59
2023/01/26 06:17:17;;;;;;;34.13;13.52;;;;;;;-0.69;100.00;102283.06;5072104;28;20073;-58
2023/01/26 06:19:45;;;;;;;37.08;14.85;;;;;;;-0.67;100.00;102285.66;5073280;28;20047;-59
2023/01/26 06:22:14;;;;;;;33.83;14.18;;;;;;;-0.69;100.00;102279.63;5071642;28;20044;-59
2023/01/26 06:24:42;;;;;;;33.85;14.70;;;;;;;-0.62;100.00;102288.28;5073041;28;20140;-59
2023/01/26 06:27:13;;;;;;;34.50;14.60;;;;;;;-0.64;100.00;102288.28;5073879;28;20353;-59
2023/01/26 06:29:42;;;;;;;35.08;13.73;;;;;;;-0.64;100.00;102282.22;5072042;28;20399;-59
2023/01/26 06:32:10;;;;;;;33.33;14.90;;;;;;;-0.64;100.00;102282.22;5072334;28;20495;-59
2023/01/26 06:34:40;;;;;;;35.03;15.13;;;;;;;-0.62;100.00;102289.13;5073882;28;20048;-59
2023/01/26 06:37:08;;;;;;;32.40;13.55;;;;;;;-0.59;100.00;102294.31;5073775;28;20037;-59
2023/01/26 06:39:36;;;;;;;33.50;15.40;;;;;;;-0.65;100.00;102289.13;5072259;28;20037;-59
2023/01/26 06:42:05;;;;;;;32.03;14.25;;;;;;;-0.68;100.00;102284.81;5071759;28;20059;-59
2023/01/26 06:44:33;;;;;;;34.22;14.20;;;;;;;-0.74;100.00;102284.75;5072525;28;20068;-59
2023/01/26 06:47:01;;;;;;;31.85;14.68;;;;;;;-0.69;100.00;102293.41;5073320;28;20048;-59
2023/01/26 06:49:29;;;;;;;34.47;14.30;;;;;;;-0.64;100.00;102301.19;5073203;28;20119;-59
2023/01/26 06:52:02;;;;;;;33.85;15.07;;;;;;;-0.62;100.00;102303.78;5071772;28;20078;-59
2023/01/26 06:54:31;;;;;;;36.95;13.60;;;;;;;-0.62;100.00;102302.06;5070992;28;20048;-59
2023/01/26 06:56:59;;;;;;;29.40;13.77;;;;;;;-0.62;100.00;102304.63;5072827;28;20076;-58
2023/01/26 06:59:27;;;;;;;34.90;14.27;;;;;;;-0.60;100.00;102308.09;5070572;28;20040;-59
2023/01/26 07:01:55;;;;;;;36.13;14.30;;;;;;;-0.62;100.00;102307.22;5071710;28;20127;-58
2023/01/26 07:04:26;;;;;;;33.42;14.40;;;;;;;-0.60;100.00;102302.94;5073420;28;20565;-59
2023/01/26 07:06:54;;;;;;;34.83;14.52;;;;;;;-0.57;100.00;102310.69;5073000;28;20056;-59
2023/01/26 07:09:24;;;;;;;33.90;14.07;;;;;;;-0.54;100.00;102310.72;5073068;28;20063;-58
2023/01/26 07:11:52;;;;;;;33.28;14.40;;;;;;;-0.55;100.00;102302.94;5073052;28;20556;-59
2023/01/26 07:14:20;;;;;;;33.67;14.55;;;;;;;-0.57;100.00;102304.69;5072993;28;20139;-58
2023/01/26 07:16:48;;;;;;;34.63;14.27;;;;;;;-0.57;100.00;102305.53;5073110;28;20052;-58
2023/01/26 07:19:17;;;;;;;33.00;13.82;;;;;;;-0.58;100.00;102311.56;5072650;28;20048;-59
2023/01/26 07:21:45;;;;;;;34.20;14.25;;;;;;;-0.57;100.00;102302.94;5070032;28;20479;-59
2023/01/26 07:24:13;;;;;;;31.80;13.82;;;;;;;-0.54;100.00;102302.94;5070404;28;20403;-58
2023/01/26 07:26:42;;;;;;;32.42;14.57;;;;;;;-0.53;100.00;102304.69;5072930;28;20563;-58
2023/01/26 07:29:10;;;;;;;33.65;14.50;;;;;;;-0.55;100.00;102301.22;5072681;28;20446;-58
2023/01/26 07:31:40;;;;;;;35.03;14.00;;;;;;;-0.52;100.00;102306.44;5072813;28;20048;-58
2023/01/26 07:34:09;;;;;;;34.42;14.65;;;;;;;-0.48;100.00;102307.28;5072610;28;20551;-59
2023/01/26 07:36:37;;;;;;;32.92;13.50;;;;;;;-0.51;100.00;102302.09;5072670;28;20064;-59
2023/01/26 07:39:06;;;;;;;33.90;14.95;;;;;;;-0.51;100.00;102315.88;5071980;28;20499;-59
2023/01/26 07:41:35;;;;;;;36.17;14.85;;;;;;;-0.50;100.00;102314.19;5070171;28;20131;-59
2023/01/26 07:44:09;;;;;;;35.15;14.05;;;;;;;-0.51;100.00;102313.28;5071015;28;20055;-59
2023/01/26 07:46:37;;;;;;;29.60;12.80;;;;;;;-0.47;100.00;102323.66;5072476;28;20495;-59
2023/01/26 07:49:06;;;;;;;37.70;15.27;;;;;;;-0.49;100.00;102325.38;5072365;28;20090;-59
2023/01/26 07:51:34;;;;;;;29.65;12.57;;;;;;;-0.48;100.00;102327.09;5072421;28;20049;-59
2023/01/26 07:54:02;;;;;;;35.10;14.18;;;;;;;-0.45;100.00;102332.28;5071048;28;20059;-59
2023/01/26 07:56:30;;;;;;;32.33;14.15;;;;;;;-0.44;100.00;102324.53;5069557;28;20602;-59
2023/01/26 07:58:59;;;;;;;31.48;13.40;;;;;;;-0.39;100.00;102329.75;5072062;28;20094;-59
2023/01/26 08:01:32;;;;;;;36.22;14.60;;;;;;;-0.45;100.00;102319.34;5087568;28;20053;-59
2023/01/26 08:04:00;;;;;;;31.48;13.85;;;;;;;-0.47;100.00;102316.78;5069241;28;20450;-59
2023/01/26 08:06:30;;;;;;;32.15;13.18;;;;;;;-0.45;100.00;102329.69;5070704;28;20048;-59
2023/01/26 08:08:59;;;;;;;34.35;13.43;;;;;;;-0.45;100.00;102328.00;5076668;28;20110;-59
2023/01/26 08:11:27;;;;;;;31.55;13.10;;;;;;;-0.40;100.00;102334.03;5076469;28;20092;-59
2023/01/26 08:13:55;;;;;;;28.60;12.63;;;;;;;-0.36;100.00;102333.19;5076287;28;20044;-59
2023/01/26 08:16:23;;;;;;;29.63;12.68;;;;;;;-0.36;100.00;102338.34;5075197;28;20048;-59
2023/01/26 08:18:53;;;;;;;29.10;13.15;;;;;;;-0.32;100.00;102334.06;5073109;28;20044;-59
2023/01/26 08:21:21;;;;;;;30.50;13.02;;;;;;;-0.32;100.00;102334.06;5074595;28;20053;-59
2023/01/26 08:23:52;;;;;;;27.67;11.88;;;;;;;-0.30;100.00;102334.06;5076216;28;20044;-59
2023/01/26 08:26:21;;;;;;;29.73;12.85;;;;;;;-0.28;100.00;102332.38;5075897;28;20545;-59
2023/01/26 08:28:49;;;;;;;30.27;13.77;;;;;;;-0.28;100.00;102338.41;5075817;28;20056;-59
2023/01/26 08:31:21;;;;;;;31.65;12.23;;;;;;;-0.26;100.00;102339.28;5074544;28;20461;-59
2023/01/26 08:33:50;;;;;;;;;;;;;;;-0.26;100.00;102340.97;5074817;28;20086;-59
2023/01/26 08:36:20;;;;;;;32.83;11.88;;;;;;;-0.24;100.00;102342.72;5072253;28;20634;-59
2023/01/26 08:38:50;;;;;;;30.58;13.52;;;;;;;-0.24;100.00;102336.69;5075628;28;20044;-59
2023/01/26 08:41:19;;;;;;;33.70;12.60;;;;;;;-0.20;100.00;102338.44;5075811;28;20036;-59
2023/01/26 08:43:47;;;;;;;30.48;11.65;;;;;;;-0.19;100.00;102335.00;5075796;28;20048;-59
2023/01/26 08:46:15;;;;;;;32.30;12.68;;;;;;;-0.24;100.00;102332.38;5073121;28;20067;-59
2023/01/26 08:48:43;;;;;;;33.72;13.80;;;;;;;-0.29;100.00;102326.31;5072235;28;20106;-59
2023/01/26 08:51:11;;;;;;;35.78;13.73;;;;;;;-0.22;100.00;102335.84;5074574;28;20503;-59
2023/01/26 08:53:41;;;;;;;34.72;13.82;;;;;;;-0.15;100.00;102335.84;5073990;28;20143;-59
2023/01/26 08:56:12;;;;;;;40.55;14.40;;;;;;;-0.13;100.00;102336.75;5075449;28;20483;-59
2023/01/26 08:58:40;;;;;;;37.08;13.60;;;;;;;-0.08;100.00;102343.66;5075487;28;20049;-59
2023/01/26 09:01:12;;;;;;;37.50;13.20;;;;;;;-0.05;100.00;102337.63;5074310;28;20499;-59
2023/01/26 09:03:40;;;;;;;36.70;12.87;;;;;;;-0.04;100.00;102341.91;5072314;28;20127;-59
2023/01/26 09:06:10;;;;;;;37.40;13.25;;;;;;;-0.02;100.00;102345.38;5072125;28;20110;-59
2023/01/26 09:08:38;;;;;;;34.95;13.00;;;;;;;0.03;100.00;102348.84;5075379;28;20559;-58
2023/01/26 09:11:08;;;;;;;43.00;14.75;;;;;;;0.07;100.00;102342.84;5075091;28;20032;-59
2023/01/26 09:13:37;;;;;;;42.10;13.35;;;;;;;0.11;100.00;102339.38;5073893;28;20052;-59
2023/01/26 09:16:07;;;;;;;41.45;14.07;;;;;;;0.15;100.00;102346.31;5075188;28;20146;-59
2023/01/26 09:18:35;;;;;;;37.05;13.15;;;;;;;0.27;100.00;102342.00;5074214;28;20519;-59
2023/01/26 09:21:05;;;;;;;35.92;13.30;;;;;;;0.24;100.00;102347.19;5071317;28;20128;-59
2023/01/26 09:23:34;;;;;;;41.22;13.90;;;;;;;0.22;100.00;102343.72;5073577;28;20056;-58
2023/01/26 09:26:03;;;;;;;38.53;13.38;;;;;;;0.22;100.00;102343.72;5074701;28;20127;-58
2023/01/26 09:28:32;;;;;;;35.58;13.88;;;;;;;0.30;100.00;102344.59;5072647;28;21748;-58
2023/01/26 09:31:03;;;;;;;41.67;13.50;;;;;;;0.28;100.00;102351.50;5071991;28;20684;-58
2023/01/26 09:33:32;;;;;;;38.03;14.10;;;;;;;0.26;100.00;102351.50;5074986;28;20106;-59
2023/01/26 09:36:04;;;;;;;39.40;14.07;;;;;;;0.31;100.00;102348.91;5073326;28;20418;-59
2023/01/26 09:38:33;;;;;;;38.90;14.07;;;;;;;0.34;100.00;102359.25;5072652;28;20057;-59
2023/01/26 09:41:07;;;;;;;35.75;13.15;;;;;;;0.39;100.00;102352.38;5073566;28;20468;-59
2023/01/26 09:43:42;;;;;;;46.17;14.15;;;;;;;0.37;100.00;102356.69;5072035;28;20071;-59
2023/01/26 09:46:21;;;;;;;47.80;14.20;;;;;;;0.40;100.00;102356.69;5072377;28;20056;-59
2023/01/26 09:49:02;;;;;;;45.45;15.10;;;;;;;0.44;100.00;102344.63;5074663;28;20435;-59
2023/01/26 09:51:34;;;;;;;47.97;15.32;;;;;;;0.48;100.00;102346.34;5074783;28;20047;-60
2023/01/26 09:54:09;;;;;;;46.33;15.07;;;;;;;0.53;100.00;102347.19;5074466;28;20056;-60
2023/01/26 09:56:37;;;;;;;48.55;15.13;;;;;;;0.58;100.00;102355.84;5074718;28;20040;-60
2023/01/26 09:59:19;;;;;;;47.92;14.77;;;;;;;0.60;100.00;102351.53;5074465;28;20080;-54
2023/01/26 10:01:54;;;;;;;42.88;14.98;;;;;;;0.65;100.00;102348.94;5073610;28;20495;-54
2023/01/26 10:04:32;;;;;;;40.97;15.00;;;;;;;0.65;100.00;102347.19;5073478;28;20044;-54
2023/01/26 10:07:03;;;;;;;44.38;13.88;;;;;;;0.67;100.00;102345.50;5073633;28;20108;-53
2023/01/26 10:09:35;;;;;;;51.67;15.75;;;;;;;0.75;100.00;102350.69;5073555;28;20079;-53
2023/01/26 10:12:07;;;;;;;41.03;13.68;;;;;;;0.82;100.00;102354.13;5071795;28;20052;-52
2023/01/26 10:14:41;;;;;;;46.85;14.82;;;;;;;0.90;100.00;102356.72;5070357;28;20083;-52
2023/01/26 10:17:15;;;;;;;45.08;14.35;;;;;;;0.92;100.00;102350.66;5074043;28;20049;-53
2023/01/26 10:19:49;;;;;;;44.40;13.93;;;;;;;0.98;100.00;102348.09;5074095;28;20036;-52
2023/01/26 10:22:25;;;;;;;48.55;15.05;;;;;;;1.05;100.00;102342.88;5073608;28;20045;-51
2023/01/26 10:24:57;;;;;;;45.30;13.43;;;;;;;1.12;100.00;102348.06;5073807;28;20593;-52
2023/01/26 10:27:25;;;;;;;36.45;12.35;;;;;;;1.25;100.00;102348.88;5073552;28;20060;-53
2023/01/26 10:29:54;;;;;;;39.30;13.05;;;;;;;1.32;100.00;102354.91;5072761;28;20415;-52
2023/01/26 10:32:22;;;;;;;41.22;12.45;;;;;;;1.41;100.00;102357.50;5072299;28;20648;-51
2023/01/26 10:34:52;;;;;;;45.35;12.85;;;;;;;1.45;100.00;102354.03;5073965;28;20040;-53
2023/01/26 10:37:23;;;;;;;42.42;11.82;;;;;;;1.59;100.00;102351.38;5070288;28;20045;-51
2023/01/26 10:40:01;;;;;;;35.42;11.52;;;;;;;1.64;100.00;102344.44;5070362;28;20878;-52
2023/01/26 10:42:31;;;;;;;39.70;12.45;;;;;;;1.72;100.00;102347.03;5073268;28;20059;-51
2023/01/26 10:45:03;;;;;;;37.95;11.38;;;;;;;1.82;100.00;102346.09;5073228;28;20514;-51
2023/01/26 10:47:31;;;;;;;36.00;11.40;;;;;;;1.93;100.00;102340.00;5073418;28;20044;-49
2023/01/26 10:50:21;;;;;;;36.17;11.10;;;;;;;2.20;100.00;102350.22;5073058;28;20127;-50
2023/01/26 10:52:58;;;;;;;31.08;9.50;;;;;;;2.22;100.00;102347.63;5073132;28;20052;-53
2023/01/26 10:55:27;;;;;;;33.28;9.68;;;;;;;2.28;100.00;102347.59;5073269;28;20045;-49
2023/01/26 10:57:56;;;;;;;35.08;9.85;;;;;;;2.35;100.00;102341.47;5072946;28;20131;-52
2023/01/26 11:00:28;;;;;;;36.50;12.25;;;;;;;2.57;100.00;102330.09;5072816;28;20055;-53
2023/01/26 11:03:06;;;;;;;34.10;9.38;;;;;;;2.69;100.00;102343.81;5069089;28;20048;-49
2023/01/26 11:05:35;;;;;;;36.10;10.75;;;;;;;2.77;100.00;102338.56;5070199;28;20400;-52
2023/01/26 11:08:05;;;;;;;34.50;8.90;;;;;;;2.95;100.00;102337.53;5072840;28;20059;-52
2023/01/26 11:10:35;;;;;;;36.00;9.30;;;;;;;3.08;100.00;102337.41;5073147;28;20052;-52
2023/01/26 11:13:13;;;;;;;31.15;8.73;;;;;;;3.12;100.00;102331.31;5069210;28;20399;-54
2023/01/26 11:15:44;;;;;;;29.65;9.07;;;;;;;3.29;100.00;102338.94;5069951;28;20054;-51
2023/01/26 11:18:22;;;;;;;33.35;9.35;;;;;;;3.35;100.00;102334.56;5072584;28;20036;-61
2023/01/26 11:21:04;;;;;;;32.72;9.95;;;;;;;3.40;100.00;102339.69;5069906;28;20045;-61
2023/01/26 11:23:49;;;;;;;35.05;10.05;;;;;;;3.42;100.00;102343.13;5069155;28;20103;-52
2023/01/26 11:26:52;;;;;;;37.35;10.57;;;;;;;3.52;100.00;102334.34;5072438;28;20105;-62
2023/01/26 11:29:48;;;;;;;31.92;9.60;;;;;;;3.82;100.00;102334.84;5062130;28;20098;-62
2023/01/26 11:32:26;;;;;;;35.33;9.57;;;;;;;3.85;100.00;102337.41;5072397;28;20040;-52
2023/01/26 11:35:07;;;;;;;25.70;8.75;;;;;;;3.93;100.00;102336.44;5070563;28;20048;-62
2023/01/26 11:37:43;;;;;;;31.52;9.13;;;;;;;4.00;100.00;102330.28;5069169;28;20472;-62
2023/01/26 11:40:28;;;;;;;33.00;9.93;;;;;;;4.17;100.00;102335.22;5070735;28;20536;-53
2023/01/26 11:43:26;;;;;;;24.65;7.03;;;;;;;4.33;100.00;102328.06;5072194;28;20037;-54
2023/01/26 11:46:24;;;;;;;31.83;5.82;;;;;;;4.51;100.00;102338.22;5066534;28;20451;-50
2023/01/26 11:49:08;;;;;;;25.05;5.65;;;;;;;4.71;100.00;102334.41;5072103;28;20048;-51
2023/01/26 11:51:53;;;;;;;24.98;5.78;;;;;;;4.77;100.00;102331.69;5072172;28;20067;-50
2023/01/26 11:54:38;;;;;;;20.45;5.38;;;;;;;4.83;100.00;102323.75;5072182;28;20507;-50
2023/01/26 11:57:17;;;;;;;24.25;5.38;;;;;;;4.93;100.00;102328.81;5071975;28;20063;-51
2023/01/26 11:59:50;;;;;;;25.23;5.43;;;;;;;5.07;100.00;102322.47;5070955;28;20056;-52
2023/01/26 12:02:29;;;;;;;34.05;6.47;;;;;;;5.07;100.00;102319.88;5068041;28;20553;-53
2023/01/26 12:05:04;;;;;;;32.30;6.25;;;;;;;5.10;100.00;102326.78;5071244;28;20075;-49
2023/01/26 12:07:53;;;;;;;30.05;4.65;;;;;;;5.20;100.00;102330.06;5072198;28;20036;-53
2023/01/26 12:10:27;;;;;;;22.67;4.53;;;;;;;5.30;100.00;102328.97;5072282;28;20053;-48